| time (UTC) | temp C | wind direction | speed KPH | gust KPH | rain 1hr cm | rain 24hr cm | rain mn cm | humidity % | barometer mb |
| 20260906060737 | 22 | 278 | 1.6 | 1.6 | 0.00 | 0.00 | 0.00 | 99 | 1007.8 |
| 20260906060235 | 22 | 267 | 0.0 | 0.0 | 0.00 | 0.00 | 0.00 | 99 | 1007.8 |
| 20260906055730 | 22 | 271 | 0.0 | 0.0 | 0.00 | 0.00 | 0.00 | 98 | 1008.0 |
| 20260906055225 | 22 | 271 | 0.0 | 0.0 | 0.00 | 0.00 | 0.00 | 98 | 1008.2 |
| 20260906054721 | 22 | 271 | 0.0 | 0.0 | 0.00 | 0.00 | 0.00 | 98 | 1008.0 |
| 20260906054216 | 22 | 271 | 0.0 | 0.0 | 0.00 | 0.00 | 0.00 | 98 | 1008.5 |
| 20260906053713 | 22 | 271 | 1.6 | 1.6 | 0.00 | 0.00 | 0.00 | 98 | 1008.4 |
| 20260906053208 | 22 | 269 | 0.0 | 0.0 | 0.00 | 0.00 | 0.00 | 98 | 1008.6 |
| 20260906052703 | 22 | 251 | 1.6 | 1.6 | 0.00 | 0.00 | 0.00 | 97 | 1008.5 |
| 20260906052159 | 23 | 189 | 3.2 | 4.8 | 0.00 | 0.00 | 0.00 | 95 | 1008.5 |
| 20260906051656 | 23 | 274 | 0.0 | 0.0 | 0.00 | 0.00 | 0.00 | 93 | 1008.5 |
| 20260906051155 | 23 | 277 | 1.6 | 1.6 | 0.00 | 0.00 | 0.00 | 92 | 1008.6 |
| 20260906050651 | 23 | 285 | 1.6 | 1.6 | 0.00 | 0.00 | 0.00 | 92 | 1008.7 |
| 20260906050146 | 23 | 273 | 0.0 | 0.0 | 0.00 | 0.00 | 0.00 | 93 | 1008.5 |
| 20260906045644 | 23 | 286 | 0.0 | 0.0 | 0.00 | 0.00 | 0.00 | 93 | 1008.4 |
| 20260906045140 | 23 | 278 | 0.0 | 1.6 | 0.00 | 0.00 | 0.00 | 93 | 1008.4 |
| 20260906044636 | 22 | 284 | 3.2 | 4.8 | 0.00 | 0.00 | 0.00 | 95 | 1008.6 |
| 20260906044131 | 22 | 256 | 0.0 | 0.0 | 0.00 | 0.00 | 0.00 | 96 | 1008.5 |
| 20260906043627 | 23 | 262 | 1.6 | 1.6 | 0.00 | 0.00 | 0.00 | 94 | 1008.5 |
| 20260906043122 | 23 | 273 | 0.0 | 0.0 | 0.00 | 0.00 | 0.00 | 94 | 1008.6 |
| 20260906042621 | 23 | 284 | 3.2 | 4.8 | 0.00 | 0.00 | 0.00 | 96 | 1008.5 |
| 20260906042115 | 22 | 306 | 3.2 | 3.2 | 0.00 | 0.00 | 0.00 | 98 | 1008.7 |
| 20260906041612 | 22 | 285 | 1.6 | 1.6 | 0.00 | 0.00 | 0.00 | 99 | 1008.5 |
| 20260906041106 | 22 | 294 | 1.6 | 3.2 | 0.00 | 0.00 | 0.00 | 99 | 1008.8 |
| 20260906040602 | 22 | 263 | 0.0 | 1.6 | 0.13 | 0.00 | 0.00 | 99 | 1008.8 |
| 20260906040057 | 22 | 262 | 0.0 | 0.0 | 0.13 | 0.00 | 0.00 | 99 | 1008.6 |
| 20260906035552 | 22 | 261 | 1.6 | 1.6 | 0.00 | 0.20 | 0.20 | 99 | 1008.6 |
| 20260906035048 | 22 | 280 | 0.0 | 0.0 | 0.00 | 0.20 | 0.20 | 99 | 1008.7 |
| 20260906034548 | 22 | 280 | 1.6 | 1.6 | 0.00 | 0.20 | 0.20 | 99 | 1008.8 |
| 20260906034043 | 22 | 253 | 1.6 | 1.6 | 0.00 | 0.20 | 0.20 | 99 | 1008.7 |
| 20260906033538 | 22 | 284 | 0.0 | 0.0 | 0.00 | 0.20 | 0.20 | 99 | 1008.8 |
| 20260906033028 | 22 | 285 | 1.6 | 1.6 | 0.00 | 0.20 | 0.20 | 99 | 1008.7 |
| 20260906032524 | 22 | 270 | 0.0 | 0.0 | 0.00 | 0.20 | 0.20 | 99 | 1008.4 |
| 20260906032024 | 22 | 270 | 0.0 | 0.0 | 0.00 | 0.20 | 0.20 | 99 | 1008.6 |
| 20260906031520 | 22 | 268 | 0.0 | 0.0 | 0.00 | 0.20 | 0.20 | 99 | 1008.8 |
| 20260906031015 | 22 | 254 | 3.2 | 4.8 | 0.00 | 0.20 | 0.20 | 99 | 1008.4 |
| 20260906030514 | 22 | 272 | 3.2 | 3.2 | 0.00 | 0.20 | 0.20 | 99 | 1008.5 |
| 20260906030014 | 22 | 315 | 0.0 | 0.0 | 0.00 | 0.20 | 0.20 | 99 | 1008.5 |
| 20260906025514 | 22 | 315 | 0.0 | 0.0 | 0.00 | 0.20 | 0.20 | 99 | 1008.6 |
| 20260906025012 | 22 | 321 | 1.6 | 1.6 | 0.00 | 0.20 | 0.20 | 99 | 1008.4 |
| 20260906024508 | 22 | 317 | 1.6 | 1.6 | 0.00 | 0.20 | 0.20 | 99 | 1008.3 |
| 20260906024008 | 22 | 317 | 0.0 | 0.0 | 0.00 | 0.20 | 0.20 | 99 | 1008.3 |
| 20260906023504 | 22 | 324 | 0.0 | 1.6 | 0.00 | 0.20 | 0.20 | 99 | 1008.4 |
| 20260906022959 | 22 | 293 | 0.0 | 1.6 | 0.00 | 0.20 | 0.20 | 99 | 1008.4 |
| 20260906022454 | 22 | 315 | 1.6 | 3.2 | 0.00 | 0.20 | 0.20 | 99 | 1008.9 |
| 20260906021949 | 22 | 266 | 1.6 | 1.6 | 0.00 | 0.20 | 0.20 | 99 | 1008.7 |
| 20260906021444 | 23 | 276 | 0.0 | 0.0 | 0.00 | 0.20 | 0.20 | 99 | 1008.5 |
| 20260906020938 | 23 | 275 | 0.0 | 0.0 | 0.00 | 0.20 | 0.20 | 99 | 1008.6 |
| 20260906020432 | 23 | 275 | 0.0 | 0.0 | 0.00 | 0.20 | 0.20 | 99 | 1008.4 |
| 20260906015927 | 22 | 275 | 0.0 | 0.0 | 0.00 | 0.20 | 0.20 | 99 | 1008.5 |
| 20260906015427 | 22 | 269 | 0.0 | 0.0 | 0.00 | 0.20 | 0.20 | 99 | 1008.8 |
| 20260906014927 | 23 | 269 | 0.0 | 0.0 | 0.00 | 0.20 | 0.20 | 99 | 1008.7 |
| 20260906014426 | 22 | 269 | 0.0 | 0.0 | 0.00 | 0.20 | 0.20 | 99 | 1008.6 |
| 20260906013923 | 23 | 269 | 0.0 | 0.0 | 0.00 | 0.20 | 0.20 | 99 | 1008.7 |
| 20260906013418 | 23 | 267 | 1.6 | 1.6 | 0.00 | 0.20 | 0.20 | 99 | 1008.7 |
| 20260906012914 | 23 | 268 | 1.6 | 1.6 | 0.00 | 0.20 | 0.20 | 98 | 1008.5 |
| 20260906012408 | 23 | 268 | 1.6 | 1.6 | 0.00 | 0.20 | 0.20 | 98 | 1008.5 |
| 20260906011907 | 23 | 276 | 0.0 | 0.0 | 0.00 | 0.20 | 0.20 | 98 | 1008.5 |
| 20260906011403 | 23 | 256 | 0.0 | 0.0 | 0.00 | 0.20 | 0.20 | 97 | 1008.2 |
| 20260906010858 | 23 | 256 | 0.0 | 0.0 | 0.00 | 0.20 | 0.20 | 97 | 1007.9 |
| 20260906010354 | 23 | 256 | 0.0 | 0.0 | 0.00 | 0.20 | 0.20 | 97 | 1008.1 |
| 20260906005850 | 23 | 256 | 0.0 | 0.0 | 0.00 | 0.20 | 0.20 | 97 | 1008.0 |
| 20260906005349 | 23 | 258 | 1.6 | 1.6 | 0.00 | 0.20 | 0.20 | 97 | 1007.9 |
| 20260906004847 | 23 | 254 | 3.2 | 3.2 | 0.00 | 0.20 | 0.20 | 97 | 1007.4 |
| 20260906004347 | 23 | 290 | 3.2 | 3.2 | 0.00 | 0.20 | 0.20 | 97 | 1007.7 |
| 20260906003843 | 23 | 293 | 1.6 | 1.6 | 0.00 | 0.20 | 0.20 | 96 | 1008.1 |
| 20260906003338 | 23 | 258 | 0.0 | 0.0 | 0.00 | 0.20 | 0.20 | 96 | 1007.9 |
| 20260906002833 | 23 | 241 | 3.2 | 3.2 | 0.00 | 0.20 | 0.20 | 96 | 1007.8 |
| 20260906002333 | 23 | 251 | 1.6 | 3.2 | 0.00 | 0.20 | 0.20 | 96 | 1007.8 |
| 20260906001828 | 24 | 282 | 0.0 | 0.0 | 0.00 | 0.20 | 0.20 | 95 | 1007.6 |
| 20260906001324 | 24 | 256 | 1.6 | 3.2 | 0.00 | 0.20 | 0.20 | 94 | 1007.6 |
| 20260906000819 | 24 | 237 | 4.8 | 4.8 | 0.00 | 0.20 | 0.20 | 96 | 1007.6 |
| 20260906000314 | 24 | 284 | 0.0 | 0.0 | 0.00 | 0.20 | 0.20 | 95 | 1007.5 |
| 20260905235809 | 24 | 284 | 0.0 | 0.0 | 0.00 | 0.20 | 0.20 | 95 | 1007.5 |
| 20260905235308 | 24 | 284 | 0.0 | 0.0 | 0.00 | 0.20 | 0.20 | 95 | 1007.5 |
| 20260905234804 | 24 | 284 | 0.0 | 0.0 | 0.00 | 0.20 | 0.20 | 94 | 1007.3 |
| 20260905234259 | 24 | 285 | 0.0 | 0.0 | 0.00 | 0.20 | 0.20 | 94 | 1007.4 |
| 20260905233754 | 25 | 285 | 0.0 | 1.6 | 0.00 | 0.20 | 0.20 | 93 | 1007.2 |
| 20260905233254 | 25 | 261 | 0.0 | 0.0 | 0.00 | 0.20 | 0.20 | 94 | 1007.6 |
| 20260905232752 | 25 | 261 | 0.0 | 0.0 | 0.00 | 0.20 | 0.20 | 94 | 1007.4 |
| 20260905232249 | 25 | 261 | 0.0 | 0.0 | 0.00 | 0.20 | 0.20 | 94 | 1007.2 |
| 20260905231744 | 25 | 261 | 0.0 | 0.0 | 0.00 | 0.20 | 0.20 | 93 | 1007.3 |
| 20260905231239 | 25 | 261 | 0.0 | 0.0 | 0.00 | 0.20 | 0.20 | 92 | 1007.4 |
| 20260905230736 | 25 | 261 | 0.0 | 0.0 | 0.00 | 0.20 | 0.20 | 93 | 1007.7 |
| 20260905230233 | 25 | 261 | 0.0 | 0.0 | 0.00 | 0.20 | 0.20 | 93 | 1007.5 |
| 20260905225728 | 25 | 261 | 0.0 | 0.0 | 0.00 | 0.20 | 0.20 | 92 | 1007.7 |
| 20260905225223 | 25 | 260 | 0.0 | 0.0 | 0.00 | 0.20 | 0.20 | 90 | 1007.6 |
| 20260905224722 | 25 | 260 | 0.0 | 0.0 | 0.00 | 0.20 | 0.20 | 91 | 1007.8 |
| 20260905224218 | 25 | 260 | 0.0 | 0.0 | 0.00 | 0.20 | 0.20 | 92 | 1007.6 |
| 20260905223714 | 25 | 260 | 1.6 | 1.6 | 0.00 | 0.20 | 0.20 | 92 | 1007.6 |
| 20260905223211 | 25 | 285 | 0.0 | 0.0 | 0.00 | 0.20 | 0.20 | 91 | 1007.5 |
| 20260905222706 | 25 | 286 | 0.0 | 0.0 | 0.00 | 0.20 | 0.20 | 92 | 1007.7 |
| 20260905222205 | 25 | 287 | 0.0 | 0.0 | 0.00 | 0.20 | 0.20 | 92 | 1007.6 |
| 20260905221701 | 25 | 209 | 4.8 | 4.8 | 0.00 | 0.20 | 0.20 | 92 | 1007.5 |
| 20260905221157 | 25 | 290 | 3.2 | 3.2 | 0.00 | 0.20 | 0.20 | 90 | 1007.3 |
| 20260905220653 | 25 | 291 | 0.0 | 0.0 | 0.00 | 0.20 | 0.20 | 90 | 1007.1 |
| 20260905220149 | 25 | 302 | 1.6 | 3.2 | 0.00 | 0.20 | 0.20 | 90 | 1007.1 |
| 20260905215643 | 25 | 330 | 3.2 | 3.2 | 0.00 | 0.20 | 0.20 | 90 | 1007.0 |
| 20260905215138 | 25 | 271 | 0.0 | 1.6 | 0.00 | 0.20 | 0.20 | 91 | 1007.4 |
| 20260905214634 | 25 | 286 | 1.6 | 1.6 | 0.00 | 0.20 | 0.20 | 92 | 1007.3 |
| 20260905214129 | 25 | 290 | 1.6 | 1.6 | 0.00 | 0.20 | 0.20 | 91 | 1007.6 |
| 20260905213625 | 25 | 22 | 3.2 | 3.2 | 0.00 | 0.20 | 0.20 | 93 | 1007.8 |
| 20260905213120 | 25 | 286 | 3.2 | 3.2 | 0.00 | 0.20 | 0.20 | 93 | 1007.6 |
| 20260905212615 | 25 | 295 | 1.6 | 1.6 | 0.00 | 0.20 | 0.20 | 94 | 1008.0 |
| 20260905212114 | 25 | 296 | 1.6 | 1.6 | 0.00 | 0.20 | 0.20 | 94 | 1007.9 |
| 20260905211610 | 25 | 294 | 1.6 | 1.6 | 0.00 | 0.20 | 0.20 | 93 | 1007.8 |
| 20260905211105 | 25 | 281 | 1.6 | 1.6 | 0.00 | 0.20 | 0.20 | 93 | 1008.0 |
| 20260905210602 | 25 | 276 | 1.6 | 1.6 | 0.00 | 0.20 | 0.20 | 93 | 1008.1 |
| 20260905210056 | 25 | 302 | 1.6 | 1.6 | 0.00 | 0.20 | 0.20 | 95 | 1008.1 |
| 20260905205555 | 25 | 195 | 4.8 | 4.8 | 0.00 | 0.20 | 0.20 | 93 | 1008.1 |
| 20260905205055 | 25 | 322 | 1.6 | 3.2 | 0.00 | 0.20 | 0.20 | 93 | 1008.3 |
| 20260905204549 | 24 | 287 | 1.6 | 1.6 | 0.00 | 0.20 | 0.20 | 92 | 1008.1 |
| 20260905204045 | 24 | 305 | 1.6 | 1.6 | 0.00 | 0.20 | 0.20 | 93 | 1007.5 |
| 20260905203544 | 23 | 274 | 1.6 | 1.6 | 0.00 | 0.20 | 0.20 | 94 | 1007.7 |
| 20260905203040 | 23 | 277 | 0.0 | 0.0 | 0.00 | 0.20 | 0.20 | 95 | 1007.7 |
| 20260905202535 | 23 | 278 | 0.0 | 1.6 | 0.00 | 0.20 | 0.20 | 94 | 1007.5 |
| 20260905202031 | 23 | 272 | 0.0 | 1.6 | 0.00 | 0.20 | 0.20 | 93 | 1007.9 |
| 20260905201526 | 23 | 264 | 1.6 | 1.6 | 0.00 | 0.20 | 0.20 | 92 | 1008.3 |
| 20260905201025 | 23 | 278 | 1.6 | 1.6 | 0.00 | 0.20 | 0.20 | 92 | 1008.3 |
| 20260905200521 | 24 | 289 | 3.2 | 4.8 | 0.18 | 0.20 | 0.20 | 92 | 1008.2 |
| 20260905200020 | 25 | 342 | 12.9 | 14.5 | 1.27 | 0.20 | 0.20 | 91 | 1008.3 |
| 20260905195515 | 25 | 287 | 8.0 | 11.3 | 1.27 | 0.20 | 0.20 | 88 | 1008.3 |
| 20260905195010 | 28 | 263 | 3.2 | 4.8 | 0.18 | 0.03 | 0.03 | 78 | 1008.5 |
| 20260905194509 | 31 | 342 | 14.5 | 24.1 | 0.00 | 0.00 | 0.00 | 65 | 1008.8 |
| 20260905194004 | 32 | 349 | 9.7 | 11.3 | 0.00 | 0.00 | 0.00 | 62 | 1008.5 |
| 20260905193458 | 32 | 291 | 1.6 | 1.6 | 0.00 | 0.00 | 0.00 | 60 | 1007.8 |
| 20260905192953 | 33 | 275 | 3.2 | 3.2 | 0.00 | 0.00 | 0.00 | 59 | 1007.5 |
| 20260905192448 | 33 | 319 | 3.2 | 4.8 | 0.00 | 0.00 | 0.00 | 59 | 1007.5 |
| 20260905191945 | 33 | 289 | 1.6 | 1.6 | 0.00 | 0.00 | 0.00 | 56 | 1007.5 |
| 20260905191443 | 33 | 288 | 1.6 | 1.6 | 0.00 | 0.00 | 0.00 | 57 | 1007.5 |
| 20260905190937 | 34 | 295 | 1.6 | 1.6 | 0.00 | 0.00 | 0.00 | 55 | 1007.6 |
| 20260905190435 | 34 | 291 | 3.2 | 3.2 | 0.00 | 0.00 | 0.00 | 54 | 1007.4 |
| 20260905185934 | 34 | 292 | 1.6 | 1.6 | 0.00 | 0.00 | 0.00 | 54 | 1007.6 |
| 20260905185429 | 35 | 292 | 0.0 | 1.6 | 0.00 | 0.00 | 0.00 | 54 | 1007.2 |
| 20260905184928 | 35 | 280 | 1.6 | 1.6 | 0.00 | 0.00 | 0.00 | 53 | 1007.4 |
| 20260905184423 | 36 | 274 | 3.2 | 3.2 | 0.00 | 0.00 | 0.00 | 51 | 1007.4 |
| 20260905183922 | 36 | 316 | 4.8 | 4.8 | 0.00 | 0.00 | 0.00 | 53 | 1007.4 |
| 20260905183416 | 35 | 271 | 1.6 | 1.6 | 0.00 | 0.00 | 0.00 | 53 | 1007.4 |
| 20260905182912 | 35 | 253 | 1.6 | 3.2 | 0.00 | 0.00 | 0.00 | 53 | 1007.5 |
| 20260905182410 | 35 | 185 | 4.8 | 4.8 | 0.00 | 0.00 | 0.00 | 50 | 1007.7 |
| 20260905181907 | 36 | 150 | 9.7 | 11.3 | 0.00 | 0.00 | 0.00 | 51 | 1007.8 |
| 20260905181407 | 35 | 156 | 4.8 | 6.4 | 0.00 | 0.00 | 0.00 | 52 | 1008.0 |
| 20260905180905 | 35 | 148 | 6.4 | 6.4 | 0.00 | 0.00 | 0.00 | 55 | 1007.9 |
| 20260905180401 | 35 | 220 | 6.4 | 6.4 | 0.00 | 0.00 | 0.00 | 53 | 1008.1 |
| 20260905175856 | 35 | 247 | 4.8 | 4.8 | 0.00 | 0.00 | 0.00 | 55 | 1008.2 |
| 20260905175355 | 35 | 234 | 3.2 | 3.2 | 0.00 | 0.00 | 0.00 | 54 | 1008.4 |
| 20260905174850 | 35 | 298 | 3.2 | 4.8 | 0.00 | 0.00 | 0.00 | 54 | 1008.3 |
| 20260905174346 | 35 | 268 | 1.6 | 1.6 | 0.00 | 0.00 | 0.00 | 55 | 1008.6 |
| 20260905173842 | 34 | 297 | 3.2 | 3.2 | 0.00 | 0.00 | 0.00 | 59 | 1008.5 |
| 20260905173337 | 34 | 289 | 0.0 | 1.6 | 0.00 | 0.00 | 0.00 | 59 | 1008.5 |
| 20260905172832 | 34 | 308 | 4.8 | 4.8 | 0.00 | 0.00 | 0.00 | 58 | 1008.6 |
| 20260905172330 | 35 | 294 | 1.6 | 1.6 | 0.00 | 0.00 | 0.00 | 58 | 1008.8 |
| 20260905171826 | 35 | 277 | 1.6 | 3.2 | 0.00 | 0.00 | 0.00 | 56 | 1008.6 |
| 20260905171323 | 35 | 348 | 9.7 | 11.3 | 0.00 | 0.00 | 0.00 | 55 | 1008.7 |
| 20260905170819 | 34 | 186 | 6.4 | 6.4 | 0.00 | 0.00 | 0.00 | 58 | 1008.6 |
| 20260905170314 | 35 | 249 | 3.2 | 3.2 | 0.00 | 0.00 | 0.00 | 58 | 1009.1 |
| 20260905165814 | 34 | 217 | 4.8 | 4.8 | 0.00 | 0.00 | 0.00 | 58 | 1008.9 |
| 20260905165309 | 33 | 222 | 4.8 | 6.4 | 0.00 | 0.00 | 0.00 | 59 | 1009.1 |
| 20260905164804 | 35 | 296 | 3.2 | 3.2 | 0.00 | 0.00 | 0.00 | 57 | 1009.1 |
| 20260905164259 | 35 | 256 | 1.6 | 1.6 | 0.00 | 0.00 | 0.00 | 63 | 1009.2 |
| 20260905163754 | 34 | 260 | 3.2 | 3.2 | 0.00 | 0.00 | 0.00 | 62 | 1009.5 |
| 20260905163250 | 33 | 309 | 3.2 | 3.2 | 0.00 | 0.00 | 0.00 | 61 | 1009.9 |
| 20260905162746 | 34 | 220 | 4.8 | 6.4 | 0.00 | 0.00 | 0.00 | 60 | 1009.4 |
| 20260905162245 | 33 | 270 | 3.2 | 3.2 | 0.00 | 0.00 | 0.00 | 63 | 1009.5 |
| 20260905161740 | 32 | 211 | 8.0 | 9.7 | 0.00 | 0.00 | 0.00 | 65 | 1009.6 |
| 20260905161238 | 33 | 225 | 9.7 | 11.3 | 0.00 | 0.00 | 0.00 | 66 | 1009.8 |
| 20260905160732 | 33 | 346 | 1.6 | 1.6 | 0.00 | 0.00 | 0.00 | 65 | 1009.8 |
| 20260905160231 | 32 | 269 | 1.6 | 3.2 | 0.00 | 0.00 | 0.00 | 65 | 1009.8 |
| 20260905155726 | 33 | 255 | 9.7 | 11.3 | 0.00 | 0.00 | 0.00 | 64 | 1009.9 |
| 20260905155225 | 33 | 244 | 9.7 | 11.3 | 0.00 | 0.00 | 0.00 | 65 | 1009.6 |
| 20260905154719 | 32 | 278 | 3.2 | 4.8 | 0.00 | 0.00 | 0.00 | 69 | 1009.9 |
| 20260905154215 | 32 | 221 | 8.0 | 9.7 | 0.00 | 0.00 | 0.00 | 72 | 1010.1 |
| 20260905153711 | 32 | 258 | 3.2 | 4.8 | 0.00 | 0.00 | 0.00 | 73 | 1010.0 |
| 20260905153206 | 32 | 241 | 4.8 | 4.8 | 0.00 | 0.00 | 0.00 | 72 | 1010.0 |
| 20260905152701 | 32 | 272 | 0.0 | 1.6 | 0.00 | 0.00 | 0.00 | 69 | 1010.0 |
| 20260905152156 | 32 | 317 | 1.6 | 3.2 | 0.00 | 0.00 | 0.00 | 69 | 1009.9 |
| 20260905151656 | 32 | 232 | 6.4 | 9.7 | 0.00 | 0.00 | 0.00 | 70 | 1010.1 |
| 20260905151151 | 31 | 208 | 9.7 | 11.3 | 0.00 | 0.00 | 0.00 | 74 | 1010.2 |
| 20260905150651 | 31 | 277 | 6.4 | 6.4 | 0.00 | 0.00 | 0.00 | 75 | 1010.0 |
| 20260905150150 | 31 | 272 | 3.2 | 3.2 | 0.00 | 0.00 | 0.00 | 76 | 1010.3 |
| 20260905145649 | 31 | 261 | 6.4 | 6.4 | 0.00 | 0.00 | 0.00 | 73 | 1010.3 |
| 20260905145149 | 30 | 273 | 3.2 | 4.8 | 0.00 | 0.00 | 0.00 | 75 | 1010.2 |
| 20260905144643 | 30 | 230 | 4.8 | 6.4 | 0.00 | 0.00 | 0.00 | 76 | 1010.0 |
| 20260905144142 | 31 | 229 | 4.8 | 4.8 | 0.00 | 0.00 | 0.00 | 76 | 1010.1 |
| 20260905143637 | 31 | 259 | 3.2 | 3.2 | 0.00 | 0.00 | 0.00 | 75 | 1010.1 |
| 20260905143137 | 31 | 273 | 1.6 | 1.6 | 0.00 | 0.00 | 0.00 | 75 | 1010.4 |
| 20260905142636 | 30 | 274 | 0.0 | 0.0 | 0.00 | 0.00 | 0.00 | 76 | 1010.5 |
| 20260905142130 | 30 | 322 | 3.2 | 3.2 | 0.00 | 0.00 | 0.00 | 78 | 1010.2 |
| 20260905141625 | 30 | 240 | 6.4 | 6.4 | 0.00 | 0.00 | 0.00 | 79 | 1010.4 |
| 20260905141121 | 30 | 252 | 0.0 | 1.6 | 0.00 | 0.00 | 0.00 | 80 | 1010.5 |
| 20260905140616 | 29 | 267 | 3.2 | 3.2 | 0.00 | 0.00 | 0.00 | 80 | 1010.4 |
| 20260905140115 | 28 | 241 | 6.4 | 6.4 | 0.00 | 0.00 | 0.00 | 83 | 1010.4 |
| 20260905135611 | 28 | 265 | 1.6 | 3.2 | 0.00 | 0.00 | 0.00 | 84 | 1010.6 |
| 20260905135106 | 28 | 259 | 4.8 | 6.4 | 0.00 | 0.00 | 0.00 | 82 | 1010.7 |
| 20260905134601 | 28 | 237 | 3.2 | 4.8 | 0.00 | 0.00 | 0.00 | 83 | 1010.7 |
| 20260905134059 | 28 | 270 | 0.0 | 1.6 | 0.00 | 0.00 | 0.00 | 83 | 1010.7 |
| 20260905133555 | 27 | 275 | 1.6 | 1.6 | 0.00 | 0.00 | 0.00 | 85 | 1010.8 |
| 20260905133054 | 27 | 272 | 1.6 | 1.6 | 0.00 | 0.00 | 0.00 | 85 | 1010.5 |
| 20260905132554 | 27 | 240 | 3.2 | 3.2 | 0.00 | 0.00 | 0.00 | 88 | 1010.6 |
| 20260905132049 | 26 | 241 | 8.0 | 11.3 | 0.00 | 0.00 | 0.00 | 88 | 1010.6 |
| 20260905131545 | 27 | 213 | 6.4 | 9.7 | 0.00 | 0.00 | 0.00 | 87 | 1010.4 |
| 20260905131040 | 26 | 250 | 4.8 | 9.7 | 0.00 | 0.00 | 0.00 | 89 | 1010.6 |
| 20260905130539 | 26 | 233 | 4.8 | 9.7 | 0.00 | 0.00 | 0.00 | 90 | 1010.7 |
| 20260905130034 | 26 | 235 | 6.4 | 6.4 | 0.00 | 0.00 | 0.00 | 89 | 1010.7 |
| 20260905125533 | 26 | 258 | 3.2 | 3.2 | 0.00 | 0.00 | 0.00 | 91 | 1010.6 |
| 20260905125029 | 25 | 248 | 3.2 | 3.2 | 0.00 | 0.00 | 0.00 | 92 | 1010.4 |
| 20260905124526 | 25 | 246 | 4.8 | 4.8 | 0.00 | 0.00 | 0.00 | 93 | 1010.5 |
| 20260905124021 | 25 | 245 | 3.2 | 6.4 | 0.00 | 0.00 | 0.00 | 92 | 1010.4 |
| 20260905123517 | 25 | 264 | 3.2 | 4.8 | 0.00 | 0.00 | 0.00 | 94 | 1010.2 |
| 20260905123013 | 25 | 250 | 1.6 | 1.6 | 0.00 | 0.00 | 0.00 | 94 | 1010.7 |
| 20260905122507 | 25 | 272 | 0.0 | 1.6 | 0.00 | 0.00 | 0.00 | 94 | 1010.6 |
| 20260905121956 | 24 | 271 | 3.2 | 4.8 | 0.00 | 0.00 | 0.00 | 96 | 1010.4 |
| 20260905121452 | 23 | 239 | 4.8 | 4.8 | 0.00 | 0.00 | 0.00 | 96 | 1010.3 |
| 20260905120951 | 23 | 240 | 6.4 | 6.4 | 0.00 | 0.00 | 0.00 | 96 | 1010.3 |
| 20260905120445 | 23 | 273 | 1.6 | 1.6 | 0.00 | 0.00 | 0.00 | 97 | 1010.5 |
| 20260905115940 | 23 | 259 | 0.0 | 1.6 | 0.00 | 0.00 | 0.00 | 98 | 1010.2 |
| 20260905115439 | 23 | 248 | 3.2 | 3.2 | 0.00 | 0.00 | 0.00 | 98 | 1010.3 |
| 20260905114934 | 23 | 252 | 3.2 | 3.2 | 0.00 | 0.00 | 0.00 | 98 | 1010.3 |
| 20260905114434 | 23 | 256 | 4.8 | 6.4 | 0.00 | 0.00 | 0.00 | 99 | 1010.3 |
| 20260905113927 | 23 | 244 | 4.8 | 4.8 | 0.00 | 0.00 | 0.00 | 99 | 1010.1 |
| 20260905113423 | 22 | 243 | 6.4 | 6.4 | 0.00 | 0.00 | 0.00 | 99 | 1009.9 |
| 20260905112918 | 22 | 246 | 3.2 | 4.8 | 0.00 | 0.00 | 0.00 | 99 | 1009.8 |
| 20260905112414 | 22 | 244 | 4.8 | 4.8 | 0.00 | 0.00 | 0.00 | 99 | 1009.9 |
| 20260905111909 | 22 | 236 | 8.0 | 9.7 | 0.00 | 0.00 | 0.00 | 99 | 1009.8 |
| 20260905111408 | 22 | 236 | 6.4 | 6.4 | 0.00 | 0.00 | 0.00 | 99 | 1009.8 |
| 20260905110902 | 22 | 228 | 6.4 | 6.4 | 0.00 | 0.00 | 0.00 | 99 | 1009.5 |
| 20260905110356 | 22 | 243 | 4.8 | 4.8 | 0.00 | 0.00 | 0.00 | 99 | 1009.6 |
| 20260905105852 | 22 | 235 | 4.8 | 4.8 | 0.00 | 0.00 | 0.00 | 99 | 1009.9 |
| 20260905105350 | 22 | 251 | 6.4 | 6.4 | 0.00 | 0.00 | 0.00 | 99 | 1009.4 |
| 20260905104845 | 22 | 241 | 8.0 | 9.7 | 0.00 | 0.00 | 0.00 | 99 | 1009.5 |
| 20260905104342 | 22 | 250 | 3.2 | 4.8 | 0.00 | 0.00 | 0.00 | 99 | 1009.9 |
| 20260905103841 | 22 | 243 | 6.4 | 6.4 | 0.00 | 0.00 | 0.00 | 99 | 1009.5 |
| 20260905103337 | 22 | 229 | 6.4 | 6.4 | 0.00 | 0.00 | 0.00 | 99 | 1009.4 |
| 20260905102832 | 22 | 238 | 4.8 | 4.8 | 0.00 | 0.00 | 0.00 | 98 | 1009.5 |
| 20260905102329 | 22 | 226 | 6.4 | 6.4 | 0.00 | 0.00 | 0.00 | 98 | 1009.5 |
| 20260905101829 | 22 | 245 | 8.0 | 9.7 | 0.00 | 0.00 | 0.00 | 98 | 1009.4 |
| 20260905101327 | 22 | 236 | 4.8 | 4.8 | 0.00 | 0.00 | 0.00 | 98 | 1009.2 |
| 20260905100821 | 22 | 250 | 3.2 | 4.8 | 0.00 | 0.00 | 0.00 | 98 | 1009.1 |
| 20260905100317 | 23 | 238 | 6.4 | 6.4 | 0.00 | 0.00 | 0.00 | 98 | 1009.1 |
| 20260905095816 | 23 | 234 | 4.8 | 4.8 | 0.00 | 0.00 | 0.00 | 98 | 1009.0 |
| 20260905095310 | 23 | 246 | 4.8 | 4.8 | 0.00 | 0.00 | 0.00 | 97 | 1009.2 |
| 20260905094805 | 23 | 256 | 3.2 | 3.2 | 0.00 | 0.00 | 0.00 | 97 | 1009.1 |
| 20260905094301 | 23 | 270 | 0.0 | 1.6 | 0.00 | 0.00 | 0.00 | 97 | 1009.1 |
| 20260905093800 | 23 | 260 | 3.2 | 3.2 | 0.00 | 0.00 | 0.00 | 97 | 1009.1 |
| 20260905093256 | 23 | 257 | 4.8 | 6.4 | 0.00 | 0.00 | 0.00 | 97 | 1009.3 |
| 20260905092751 | 23 | 269 | 1.6 | 1.6 | 0.00 | 0.00 | 0.00 | 97 | 1009.4 |
| 20260905092246 | 23 | 266 | 1.6 | 1.6 | 0.00 | 0.00 | 0.00 | 97 | 1009.2 |
| 20260905091741 | 23 | 266 | 3.2 | 3.2 | 0.00 | 0.00 | 0.00 | 97 | 1009.2 |
| 20260905091236 | 23 | 263 | 4.8 | 4.8 | 0.00 | 0.00 | 0.00 | 97 | 1009.3 |
| 20260905090735 | 23 | 275 | 0.0 | 0.0 | 0.00 | 0.00 | 0.00 | 96 | 1009.2 |
| 20260905090231 | 23 | 254 | 3.2 | 4.8 | 0.00 | 0.00 | 0.00 | 96 | 1009.3 |
| 20260905085730 | 23 | 249 | 3.2 | 3.2 | 0.00 | 0.00 | 0.00 | 96 | 1009.5 |
| 20260905085224 | 23 | 245 | 3.2 | 3.2 | 0.00 | 0.00 | 0.00 | 96 | 1009.5 |
| 20260905084718 | 23 | 243 | 3.2 | 3.2 | 0.00 | 0.00 | 0.00 | 96 | 1009.4 |
| 20260905084218 | 23 | 247 | 3.2 | 3.2 | 0.00 | 0.00 | 0.00 | 96 | 1009.4 |
| 20260905083713 | 23 | 253 | 3.2 | 3.2 | 0.00 | 0.00 | 0.00 | 96 | 1009.4 |
| 20260905083209 | 23 | 246 | 3.2 | 3.2 | 0.00 | 0.00 | 0.00 | 96 | 1009.6 |
| 20260905082705 | 23 | 271 | 0.0 | 0.0 | 0.00 | 0.00 | 0.00 | 96 | 1009.5 |
| 20260905082200 | 23 | 263 | 1.6 | 1.6 | 0.00 | 0.00 | 0.00 | 96 | 1009.5 |
| 20260905081654 | 23 | 278 | 0.0 | 0.0 | 0.00 | 0.00 | 0.00 | 95 | 1009.6 |
| 20260905081149 | 23 | 276 | 0.0 | 1.6 | 0.00 | 0.00 | 0.00 | 95 | 1009.5 |
| 20260905080643 | 23 | 274 | 0.0 | 1.6 | 0.00 | 0.00 | 0.00 | 95 | 1009.5 |
| 20260905080143 | 23 | 268 | 1.6 | 3.2 | 0.00 | 0.00 | 0.00 | 95 | 1009.6 |
| 20260905075642 | 23 | 256 | 3.2 | 3.2 | 0.00 | 0.00 | 0.00 | 95 | 1009.5 |
| 20260905075141 | 23 | 255 | 3.2 | 3.2 | 0.00 | 0.00 | 0.00 | 95 | 1009.8 |
| 20260905074640 | 23 | 252 | 1.6 | 3.2 | 0.00 | 0.00 | 0.00 | 95 | 1009.5 |
| 20260905074137 | 23 | 252 | 1.6 | 1.6 | 0.00 | 0.00 | 0.00 | 95 | 1009.9 |
| 20260905073632 | 23 | 252 | 1.6 | 1.6 | 0.00 | 0.00 | 0.00 | 95 | 1009.9 |
| 20260905073128 | 23 | 252 | 3.2 | 3.2 | 0.00 | 0.00 | 0.00 | 95 | 1009.5 |
| 20260905072627 | 23 | 252 | 3.2 | 3.2 | 0.00 | 0.00 | 0.00 | 95 | 1009.9 |
| 20260905072123 | 23 | 253 | 0.0 | 0.0 | 0.00 | 0.00 | 0.00 | 95 | 1009.9 |
| 20260905071620 | 23 | 253 | 0.0 | 0.0 | 0.00 | 0.00 | 0.00 | 94 | 1009.8 |
| 20260905071115 | 23 | 253 | 0.0 | 0.0 | 0.00 | 0.00 | 0.00 | 93 | 1010.2 |
| 20260905070610 | 24 | 253 | 0.0 | 0.0 | 0.00 | 0.00 | 0.00 | 93 | 1010.0 |
| 20260905070106 | 24 | 253 | 0.0 | 0.0 | 0.00 | 0.00 | 0.00 | 93 | 1009.9 |
| 20260905065603 | 24 | 253 | 1.6 | 3.2 | 0.00 | 0.00 | 0.00 | 92 | 1009.9 |
| 20260905065058 | 24 | 253 | 1.6 | 1.6 | 0.00 | 0.00 | 0.00 | 92 | 1010.1 |
| 20260905064553 | 24 | 253 | 1.6 | 1.6 | 0.00 | 0.00 | 0.00 | 92 | 1010.2 |
| 20260905064048 | 24 | 245 | 3.2 | 3.2 | 0.00 | 0.00 | 0.00 | 92 | 1010.1 |
| 20260905063547 | 25 | 255 | 3.2 | 3.2 | 0.00 | 0.00 | 0.00 | 91 | 1010.1 |
| 20260905063043 | 25 | 255 | 3.2 | 3.2 | 0.00 | 0.00 | 0.00 | 91 | 1010.1 |
| 20260905062538 | 25 | 271 | 0.0 | 1.6 | 0.00 | 0.00 | 0.00 | 91 | 1010.2 |
| 20260905062033 | 25 | 243 | 4.8 | 4.8 | 0.00 | 0.00 | 0.00 | 90 | 1010.3 |
| 20260905061528 | 25 | 258 | 3.2 | 3.2 | 0.00 | 0.00 | 0.00 | 90 | 1010.6 |
| 20260905061027 | 25 | 257 | 3.2 | 3.2 | 0.00 | 0.00 | 0.00 | 90 | 1010.6 |